Time,TemperatureF,DewpointF,PressureIn,WindDirection,WindDirectionDegrees,WindSpeedMPH,WindSpeedGustMPH,Humidity,HourlyPrecipIn,Conditions,Clouds,dailyrainin,SoftwareType,DateUTC
2013-06-17 00:10:00,61.7,60.0,29.74,North,8,0.0,2.0,94,0.00,,,0.02,weatherlink.com 1.10,2013-06-17 04:10:00,
2013-06-17 00:25:00,61.7,60.0,29.75,SW,229,0.0,4.0,94,0.00,,,0.00,weatherlink.com 1.10,2013-06-17 04:25:00,
2013-06-17 00:40:00,61.3,60.0,29.75,SW,229,0.0,1.0,94,0.00,,,0.00,weatherlink.com 1.10,2013-06-17 04:40:00,
2013-06-17 00:55:00,60.5,59.0,29.75,SW,229,2.0,4.0,94,0.00,,,0.00,weatherlink.com 1.10,2013-06-17 04:55:00,
2013-06-17 01:10:00,60.0,59.0,29.76,SW,229,0.0,1.0,95,0.00,,,0.00,weatherlink.com 1.10,2013-06-17 05:10:00,
2013-06-17 01:25:00,59.6,58.0,29.76,SW,229,0.0,1.0,95,0.00,,,0.00,weatherlink.com 1.10,2013-06-17 05:25:00,
2013-06-17 01:40:00,59.1,58.0,29.76,SW,229,0.0,3.0,95,0.00,,,0.00,weatherlink.com 1.10,2013-06-17 05:40:00,
2013-06-17 01:55:00,58.8,57.0,29.76,SW,229,1.0,1.0,95,0.00,,,0.00,weatherlink.com 1.10,2013-06-17 05:55:00,
2013-06-17 02:10:00,58.4,57.0,29.76,SW,229,0.0,2.0,95,0.00,,,0.00,weatherlink.com 1.10,2013-06-17 06:10:00,
2013-06-17 02:25:00,57.7,56.0,29.76,SW,229,1.0,3.0,95,0.00,,,0.00,weatherlink.com 1.10,2013-06-17 06:25:00,
2013-06-17 02:40:00,57.4,56.0,29.77,SW,229,0.0,3.0,95,0.00,,,0.00,weatherlink.com 1.10,2013-06-17 06:40:00,
2013-06-17 02:55:00,57.1,56.0,29.77,SW,229,1.0,2.0,95,0.00,,,0.00,weatherlink.com 1.10,2013-06-17 06:55:00,
2013-06-17 03:10:00,57.0,56.0,29.77,SW,229,0.0,1.0,96,0.00,,,0.00,weatherlink.com 1.10,2013-06-17 07:10:00,
2013-06-17 03:25:00,57.1,56.0,29.76,SW,229,0.0,2.0,96,0.00,,,0.00,weatherlink.com 1.10,2013-06-17 07:25:00,
2013-06-17 03:40:00,57.1,56.0,29.77,SW,229,0.0,3.0,96,0.00,,,0.00,weatherlink.com 1.10,2013-06-17 07:40:00,
2013-06-17 03:55:00,56.7,56.0,29.77,SW,229,1.0,1.0,96,0.00,,,0.00,weatherlink.com 1.10,2013-06-17 07:55:00,
2013-06-17 04:11:00,56.0,55.0,29.78,SW,229,1.0,3.0,96,0.00,,,0.00,weatherlink.com 1.10,2013-06-17 08:11:00,
2013-06-17 04:26:00,55.6,55.0,29.79,SW,229,2.0,2.0,96,0.00,,,0.00,weatherlink.com 1.10,2013-06-17 08:26:00,
2013-06-17 04:41:00,55.6,55.0,29.78,SW,229,2.0,2.0,96,0.00,,,0.00,weatherlink.com 1.10,2013-06-17 08:41:00,
2013-06-17 04:56:00,55.9,55.0,29.78,SW,229,1.0,3.0,96,0.00,,,0.00,weatherlink.com 1.10,2013-06-17 08:56:00,
2013-06-17 05:11:00,55.2,54.0,29.79,SW,229,4.0,5.0,96,0.00,,,0.00,weatherlink.com 1.10,2013-06-17 09:11:00,
2013-06-17 05:26:00,55.1,54.0,29.79,SW,229,1.0,2.0,96,0.00,,,0.00,weatherlink.com 1.10,2013-06-17 09:26:00,
2013-06-17 05:41:00,55.4,54.0,29.79,SW,229,1.0,2.0,96,0.00,,,0.00,weatherlink.com 1.10,2013-06-17 09:41:00,
2013-06-17 05:56:00,55.3,54.0,29.80,SW,229,1.0,2.0,96,0.00,,,0.00,weatherlink.com 1.10,2013-06-17 09:56:00,
2013-06-17 06:11:00,55.7,54.0,29.80,SW,229,2.0,2.0,95,0.00,,,0.00,weatherlink.com 1.10,2013-06-17 10:11:00,
2013-06-17 06:26:00,56.6,55.0,29.80,SW,229,0.0,3.0,95,0.00,,,0.00,weatherlink.com 1.10,2013-06-17 10:26:00,
2013-06-17 06:41:00,58.5,57.0,29.80,SW,229,1.0,2.0,93,0.00,,,0.00,weatherlink.com 1.10,2013-06-17 10:41:00,
2013-06-17 06:56:00,60.5,59.0,29.80,SW,229,0.0,1.0,93,0.00,,,0.00,weatherlink.com 1.10,2013-06-17 10:56:00,
2013-06-17 07:11:00,62.4,59.0,29.81,SW,229,0.0,2.0,89,0.00,,,0.00,weatherlink.com 1.10,2013-06-17 11:11:00,
2013-06-17 07:26:00,64.6,60.0,29.82,SW,229,1.0,2.0,85,0.00,,,0.00,weatherlink.com 1.10,2013-06-17 11:26:00,
2013-06-17 07:41:00,67.2,61.0,29.81,SW,229,2.0,3.0,80,0.00,,,0.00,weatherlink.com 1.10,2013-06-17 11:41:00,
2013-06-17 07:56:00,68.7,62.0,29.81,SW,222,1.0,3.0,78,0.00,,,0.00,weatherlink.com 1.10,2013-06-17 11:56:00,
2013-06-17 08:11:00,69.9,62.0,29.81,SW,222,1.0,3.0,76,0.00,,,0.00,weatherlink.com 1.10,2013-06-17 12:11:00,
2013-06-17 08:26:00,71.0,63.0,29.81,SW,222,0.0,4.0,75,0.00,,,0.00,weatherlink.com 1.10,2013-06-17 12:26:00,
2013-06-17 08:41:00,73.5,64.0,29.81,SW,214,0.0,5.0,72,0.00,,,0.00,weatherlink.com 1.10,2013-06-17 12:41:00,
2013-06-17 08:56:00,75.1,64.0,29.81,West,272,9.0,11.0,68,0.00,,,0.00,weatherlink.com 1.10,2013-06-17 12:56:00,
2013-06-17 09:11:00,75.1,64.0,29.80,WSW,237,3.0,10.0,68,0.00,,,0.00,weatherlink.com 1.10,2013-06-17 13:11:00,
2013-06-17 09:26:00,77.0,64.0,29.80,West,270,3.0,13.0,64,0.00,,,0.00,weatherlink.com 1.10,2013-06-17 13:26:00,
2013-06-17 09:41:00,76.2,64.0,29.80,WSW,258,6.0,14.0,65,0.00,,,0.00,weatherlink.com 1.10,2013-06-17 13:41:00,
2013-06-17 09:56:00,77.1,64.0,29.79,SSE,158,2.0,9.0,64,0.00,,,0.00,weatherlink.com 1.10,2013-06-17 13:56:00,
2013-06-17 10:11:00,78.2,62.0,29.79,WSW,247,4.0,12.0,58,0.00,,,0.00,weatherlink.com 1.10,2013-06-17 14:11:00,
2013-06-17 10:26:00,78.4,62.0,29.79,South,171,2.0,15.0,57,0.00,,,0.00,weatherlink.com 1.10,2013-06-17 14:26:00,
2013-06-17 10:41:00,80.7,62.0,29.79,SW,218,5.0,15.0,53,0.00,,,0.00,weatherlink.com 1.10,2013-06-17 14:41:00,
2013-06-17 10:56:00,79.3,61.0,29.79,SSW,201,5.0,13.0,53,0.00,,,0.00,weatherlink.com 1.10,2013-06-17 14:56:00,
2013-06-17 11:12:00,80.6,60.0,29.78,West,267,11.0,14.0,50,0.00,,,0.00,weatherlink.com 1.10,2013-06-17 15:12:00,
2013-06-17 11:27:00,81.8,60.0,29.77,WSW,254,2.0,11.0,47,0.00,,,0.00,weatherlink.com 1.10,2013-06-17 15:27:00,
2013-06-17 11:42:00,81.7,59.0,29.77,WSW,253,5.0,17.0,46,0.00,,,0.00,weatherlink.com 1.10,2013-06-17 15:42:00,
2013-06-17 11:57:00,81.7,58.0,29.77,NW,306,5.0,15.0,45,0.00,,,0.00,weatherlink.com 1.10,2013-06-17 15:57:00,
2013-06-17 12:12:00,82.1,59.0,29.77,SW,235,5.0,17.0,46,0.00,,,0.00,weatherlink.com 1.10,2013-06-17 16:12:00,
2013-06-17 12:27:00,82.9,59.0,29.77,WSW,252,8.0,13.0,45,0.00,,,0.00,weatherlink.com 1.10,2013-06-17 16:27:00,
2013-06-17 12:42:00,81.8,60.0,29.77,WSW,244,5.0,14.0,47,0.00,,,0.00,weatherlink.com 1.10,2013-06-17 16:42:00,
2013-06-17 12:57:00,82.6,60.0,29.77,WSW,253,1.0,12.0,46,0.00,,,0.00,weatherlink.com 1.10,2013-06-17 16:57:00,
2013-06-17 13:12:00,83.2,59.0,29.77,West,271,13.0,16.0,44,0.00,,,0.00,weatherlink.com 1.10,2013-06-17 17:12:00,
2013-06-17 13:27:00,84.7,57.0,29.76,SW,216,9.0,18.0,39,0.00,,,0.00,weatherlink.com 1.10,2013-06-17 17:27:00,
2013-06-17 13:42:00,84.4,58.0,29.76,WSW,250,8.0,19.0,41,0.00,,,0.00,weatherlink.com 1.10,2013-06-17 17:42:00,
2013-06-17 13:57:00,82.5,58.0,29.75,WSW,246,7.0,14.0,44,0.00,,,0.00,weatherlink.com 1.10,2013-06-17 17:57:00,
2013-06-17 14:12:00,83.6,61.0,29.76,NW,322,3.0,6.0,46,0.00,,,0.00,weatherlink.com 1.10,2013-06-17 18:12:00,
2013-06-17 14:27:00,80.8,59.0,29.76,NNE,23,1.0,13.0,47,0.00,,,0.00,weatherlink.com 1.10,2013-06-17 18:27:00,
2013-06-17 14:42:00,79.5,61.0,29.79,WSW,245,2.0,7.0,53,0.00,,,0.00,weatherlink.com 1.10,2013-06-17 18:42:00,
2013-06-17 14:57:00,75.6,66.0,29.77,NW,311,0.0,3.0,71,0.00,,,0.00,weatherlink.com 1.10,2013-06-17 18:57:00,
2013-06-17 15:12:00,71.9,67.0,29.77,NW,311,0.0,3.0,83,0.00,,,0.00,weatherlink.com 1.10,2013-06-17 19:12:00,
2013-06-17 15:27:00,70.9,68.0,29.79,West,277,1.0,5.0,89,0.00,,,0.00,weatherlink.com 1.10,2013-06-17 19:27:00,
2013-06-17 15:42:00,70.2,64.0,29.81,WSW,250,2.0,15.0,80,0.00,,,0.00,weatherlink.com 1.10,2013-06-17 19:42:00,
2013-06-17 15:57:00,69.0,64.0,29.79,SSW,212,0.0,3.0,84,0.00,,,0.00,weatherlink.com 1.10,2013-06-17 19:57:00,
2013-06-17 16:12:00,68.0,64.0,29.80,SW,233,2.0,5.0,86,0.00,,,0.00,weatherlink.com 1.10,2013-06-17 20:12:00,
2013-06-17 16:27:00,68.2,64.0,29.80,SW,233,1.0,4.0,86,0.00,,,0.00,weatherlink.com 1.10,2013-06-17 20:27:00,
2013-06-17 16:42:00,68.6,65.0,29.81,SW,220,2.0,6.0,89,0.00,,,0.00,weatherlink.com 1.10,2013-06-17 20:42:00,
2013-06-17 16:57:00,67.5,64.0,29.80,WSW,257,7.0,8.0,87,0.00,,,0.00,weatherlink.com 1.10,2013-06-17 20:57:00,
2013-06-17 17:12:00,68.0,64.0,29.80,WSW,257,0.0,4.0,88,0.00,,,0.00,weatherlink.com 1.10,2013-06-17 21:12:00,
2013-06-17 17:27:00,68.7,63.0,29.80,WNW,289,7.0,8.0,83,0.00,,,0.00,weatherlink.com 1.10,2013-06-17 21:27:00,
2013-06-17 17:42:00,69.7,64.0,29.79,South,189,2.0,5.0,81,0.00,,,0.00,weatherlink.com 1.10,2013-06-17 21:42:00,
2013-06-17 17:57:00,71.6,64.0,29.80,SSW,195,4.0,6.0,76,0.01,,,0.01,weatherlink.com 1.10,2013-06-17 21:57:00,
2013-06-17 18:12:00,72.6,64.0,29.80,SW,222,3.0,6.0,75,0.01,,,0.01,weatherlink.com 1.10,2013-06-17 22:12:00,
2013-06-17 18:27:00,72.6,65.0,29.80,SW,220,1.0,5.0,76,0.01,,,0.01,weatherlink.com 1.10,2013-06-17 22:27:00,
2013-06-17 18:42:00,72.4,66.0,29.81,SW,220,2.0,4.0,79,0.01,,,0.01,weatherlink.com 1.10,2013-06-17 22:42:00,
2013-06-17 18:57:00,70.5,65.0,29.80,SW,220,1.0,3.0,83,0.00,,,0.01,weatherlink.com 1.10,2013-06-17 22:57:00,
2013-06-17 19:12:00,69.8,66.0,29.80,SW,220,0.0,2.0,86,0.00,,,0.01,weatherlink.com 1.10,2013-06-17 23:12:00,
2013-06-17 19:27:00,69.4,65.0,29.81,SW,220,0.0,0.0,87,0.00,,,0.01,weatherlink.com 1.10,2013-06-17 23:27:00,
2013-06-17 19:42:00,68.0,65.0,29.81,SW,220,0.0,0.0,90,0.00,,,0.01,weatherlink.com 1.10,2013-06-17 23:42:00,
2013-06-17 19:57:00,67.1,64.0,29.82,SW,220,2.0,3.0,90,0.00,,,0.01,weatherlink.com 1.10,2013-06-17 23:57:00,
2013-06-17 20:12:00,67.3,65.0,29.83,SW,220,1.0,2.0,92,0.00,,,0.01,weatherlink.com 1.10,2013-06-18 00:12:00,
2013-06-17 20:27:00,66.4,64.0,29.83,SW,220,0.0,0.0,91,0.00,,,0.01,weatherlink.com 1.10,2013-06-18 00:27:00,
2013-06-17 20:42:00,65.8,64.0,29.83,SW,220,0.0,2.0,92,0.00,,,0.01,weatherlink.com 1.10,2013-06-18 00:42:00,
2013-06-17 20:57:00,65.2,64.0,29.84,SW,220,0.0,2.0,94,0.00,,,0.01,weatherlink.com 1.10,2013-06-18 00:57:00,
2013-06-17 21:12:00,64.7,63.0,29.85,SW,220,0.0,2.0,94,0.00,,,0.01,weatherlink.com 1.10,2013-06-18 01:12:00,
2013-06-17 21:27:00,64.5,63.0,29.86,SW,220,0.0,3.0,95,0.00,,,0.01,weatherlink.com 1.10,2013-06-18 01:27:00,
2013-06-17 21:42:00,64.5,63.0,29.87,SW,220,0.0,0.0,95,0.00,,,0.01,weatherlink.com 1.10,2013-06-18 01:42:00,
2013-06-17 21:57:00,64.5,63.0,29.87,SW,220,0.0,1.0,95,0.00,,,0.01,weatherlink.com 1.10,2013-06-18 01:57:00,
2013-06-17 22:12:00,64.3,63.0,29.87,SW,220,2.0,2.0,95,0.00,,,0.01,weatherlink.com 1.10,2013-06-18 02:12:00,
2013-06-17 22:27:00,64.1,63.0,29.86,SW,220,0.0,3.0,95,0.00,,,0.01,weatherlink.com 1.10,2013-06-18 02:27:00,
2013-06-17 22:42:00,64.1,63.0,29.86,SW,220,2.0,4.0,96,0.00,,,0.01,weatherlink.com 1.10,2013-06-18 02:42:00,
2013-06-17 22:57:00,63.8,62.0,29.86,SW,220,1.0,3.0,95,0.00,,,0.01,weatherlink.com 1.10,2013-06-18 02:57:00,
2013-06-17 23:12:00,63.4,62.0,29.86,SW,220,1.0,3.0,95,0.00,,,0.01,weatherlink.com 1.10,2013-06-18 03:12:00,
2013-06-17 23:27:00,63.1,62.0,29.86,SW,220,1.0,2.0,96,0.00,,,0.01,weatherlink.com 1.10,2013-06-18 03:27:00,
2013-06-17 23:42:00,62.8,62.0,29.86,SW,220,0.0,3.0,96,0.00,,,0.01,weatherlink.com 1.10,2013-06-18 03:42:00,
2013-06-17 23:57:00,62.9,62.0,29.86,SW,220,0.0,1.0,96,0.00,,,0.01,weatherlink.com 1.10,2013-06-18 03:57:00,